sensor_id;sensor_type;location;lat;lon;timestamp;pressure;altitude;pressure_sealevel;temperature;humidity
50430;BME280;36359;41.556;-8.418;2023-05-11T00:01:06;100762.94;;;15.48;63.39
50430;BME280;36359;41.556;-8.418;2023-05-11T00:03:33;100747.03;;;15.84;66.38
50430;BME280;36359;41.556;-8.418;2023-05-11T00:05:59;100747.38;;;15.48;63.77
50430;BME280;36359;41.556;-8.418;2023-05-11T00:08:25;100756.09;;;15.60;63.17
50430;BME280;36359;41.556;-8.418;2023-05-11T00:10:51;100745.00;;;15.53;62.85
50430;BME280;36359;41.556;-8.418;2023-05-11T00:13:17;100747.53;;;15.63;63.51
50430;BME280;36359;41.556;-8.418;2023-05-11T00:15:43;100744.31;;;15.51;62.82
50430;BME280;36359;41.556;-8.418;2023-05-11T00:18:09;100755.41;;;15.25;63.36
50430;BME280;36359;41.556;-8.418;2023-05-11T00:20:34;100760.31;;;14.97;62.93
50430;BME280;36359;41.556;-8.418;2023-05-11T00:23:00;100748.41;;;15.31;62.97
50430;BME280;36359;41.556;-8.418;2023-05-11T00:25:27;100750.13;;;15.32;62.88
50430;BME280;36359;41.556;-8.418;2023-05-11T00:27:52;100755.72;;;15.06;63.32
50430;BME280;36359;41.556;-8.418;2023-05-11T00:30:18;100759.34;;;15.06;63.39
50430;BME280;36359;41.556;-8.418;2023-05-11T00:32:44;100751.81;;;15.08;66.74
50430;BME280;36359;41.556;-8.418;2023-05-11T00:35:11;100747.88;;;15.03;68.14
50430;BME280;36359;41.556;-8.418;2023-05-11T00:37:37;100755.78;;;15.30;64.48
50430;BME280;36359;41.556;-8.418;2023-05-11T00:40:04;100755.41;;;15.25;64.25
50430;BME280;36359;41.556;-8.418;2023-05-11T00:42:30;100748.56;;;15.13;63.12
50430;BME280;36359;41.556;-8.418;2023-05-11T00:44:56;100751.28;;;14.96;64.05
50430;BME280;36359;41.556;-8.418;2023-05-11T00:47:22;100749.25;;;14.98;63.37
50430;BME280;36359;41.556;-8.418;2023-05-11T00:49:48;100759.25;;;14.73;63.63
50430;BME280;36359;41.556;-8.418;2023-05-11T00:52:15;100753.84;;;14.90;64.23
50430;BME280;36359;41.556;-8.418;2023-05-11T00:54:41;100760.53;;;15.20;63.08
50430;BME280;36359;41.556;-8.418;2023-05-11T00:57:09;100755.94;;;15.12;66.48
50430;BME280;36359;41.556;-8.418;2023-05-11T00:59:35;100758.78;;;15.03;63.00
50430;BME280;36359;41.556;-8.418;2023-05-11T01:02:02;100760.59;;;14.69;64.05
50430;BME280;36359;41.556;-8.418;2023-05-11T01:04:29;100753.66;;;14.99;64.46
50430;BME280;36359;41.556;-8.418;2023-05-11T01:07:06;100754.06;;;15.78;63.20
50430;BME280;36359;41.556;-8.418;2023-05-11T01:15:00;100742.94;;;15.31;65.85
50430;BME280;36359;41.556;-8.418;2023-05-11T01:20:11;100742.06;;;14.89;65.00
50430;BME280;36359;41.556;-8.418;2023-05-11T01:31:34;100739.09;;;14.24;66.23
50430;BME280;36359;41.556;-8.418;2023-05-11T01:34:03;100736.47;;;14.14;67.56
50430;BME280;36359;41.556;-8.418;2023-05-11T01:36:38;100737.41;;;13.97;67.80
50430;BME280;36359;41.556;-8.418;2023-05-11T01:39:08;100734.66;;;14.31;69.89
50430;BME280;36359;41.556;-8.418;2023-05-11T01:41:38;100729.22;;;13.97;67.71
50430;BME280;36359;41.556;-8.418;2023-05-11T01:44:06;100729.63;;;14.10;67.58
50430;BME280;36359;41.556;-8.418;2023-05-11T01:46:33;100730.16;;;14.14;67.48
50430;BME280;36359;41.556;-8.418;2023-05-11T01:49:01;100740.09;;;14.57;67.53
50430;BME280;36359;41.556;-8.418;2023-05-11T01:51:32;100729.53;;;14.62;67.07
50430;BME280;36359;41.556;-8.418;2023-05-11T01:54:00;100729.88;;;14.59;68.32
50430;BME280;36359;41.556;-8.418;2023-05-11T01:56:26;100721.53;;;14.35;70.11
50430;BME280;36359;41.556;-8.418;2023-05-11T01:58:54;100719.00;;;14.92;67.94
50430;BME280;36359;41.556;-8.418;2023-05-11T02:01:21;100709.97;;;14.91;67.30
50430;BME280;36359;41.556;-8.418;2023-05-11T02:03:49;100718.38;;;14.47;66.37
50430;BME280;36359;41.556;-8.418;2023-05-11T02:06:17;100713.31;;;14.26;66.76
50430;BME280;36359;41.556;-8.418;2023-05-11T02:08:45;100719.19;;;14.40;66.19
50430;BME280;36359;41.556;-8.418;2023-05-11T02:11:13;100717.09;;;14.76;69.75
50430;BME280;36359;41.556;-8.418;2023-05-11T02:13:42;100712.34;;;15.11;65.12
50430;BME280;36359;41.556;-8.418;2023-05-11T02:16:09;100708.56;;;14.28;65.81
50430;BME280;36359;41.556;-8.418;2023-05-11T02:18:39;100715.09;;;14.36;67.31
50430;BME280;36359;41.556;-8.418;2023-05-11T02:21:08;100697.78;;;14.19;68.70
50430;BME280;36359;41.556;-8.418;2023-05-11T02:23:36;100690.53;;;14.44;66.95
50430;BME280;36359;41.556;-8.418;2023-05-11T02:26:02;100697.59;;;14.20;66.94
50430;BME280;36359;41.556;-8.418;2023-05-11T02:28:29;100687.72;;;14.19;69.07
50430;BME280;36359;41.556;-8.418;2023-05-11T02:30:59;100682.97;;;14.21;71.19
50430;BME280;36359;41.556;-8.418;2023-05-11T02:33:32;100679.53;;;14.19;67.40
50430;BME280;36359;41.556;-8.418;2023-05-11T02:38:37;100693.84;;;14.13;68.84
50430;BME280;36359;41.556;-8.418;2023-05-11T02:41:11;100682.16;;;13.95;68.81
50430;BME280;36359;41.556;-8.418;2023-05-11T02:43:43;100680.09;;;13.89;70.41
50430;BME280;36359;41.556;-8.418;2023-05-11T02:46:14;100684.91;;;14.03;71.62
50430;BME280;36359;41.556;-8.418;2023-05-11T02:48:46;100686.03;;;14.18;67.82
50430;BME280;36359;41.556;-8.418;2023-05-11T02:51:16;100689.94;;;14.16;66.51
50430;BME280;36359;41.556;-8.418;2023-05-11T02:53:48;100678.81;;;14.09;66.43
50430;BME280;36359;41.556;-8.418;2023-05-11T02:56:14;100684.13;;;14.19;67.03
50430;BME280;36359;41.556;-8.418;2023-05-11T02:58:41;100680.00;;;14.06;67.22
50430;BME280;36359;41.556;-8.418;2023-05-11T03:01:23;100686.94;;;14.43;66.23
50430;BME280;36359;41.556;-8.418;2023-05-11T03:03:50;100692.06;;;14.46;68.07
50430;BME280;36359;41.556;-8.418;2023-05-11T03:08:48;100705.34;;;14.84;64.32
50430;BME280;36359;41.556;-8.418;2023-05-11T03:11:16;100706.97;;;14.52;68.57
50430;BME280;36359;41.556;-8.418;2023-05-11T03:13:44;100705.84;;;14.87;64.43
50430;BME280;36359;41.556;-8.418;2023-05-11T03:16:12;100702.88;;;14.64;64.64
50430;BME280;36359;41.556;-8.418;2023-05-11T03:18:39;100705.63;;;14.64;63.02
50430;BME280;36359;41.556;-8.418;2023-05-11T03:21:05;100718.84;;;14.43;65.42
50430;BME280;36359;41.556;-8.418;2023-05-11T03:23:33;100727.06;;;14.51;63.29
50430;BME280;36359;41.556;-8.418;2023-05-11T03:26:00;100714.16;;;14.19;64.09
50430;BME280;36359;41.556;-8.418;2023-05-11T03:28:26;100721.22;;;13.95;66.32
50430;BME280;36359;41.556;-8.418;2023-05-11T03:31:00;100717.69;;;13.51;65.25
50430;BME280;36359;41.556;-8.418;2023-05-11T03:33:26;100724.97;;;13.68;68.69
50430;BME280;36359;41.556;-8.418;2023-05-11T03:35:52;100711.13;;;13.35;67.31
50430;BME280;36359;41.556;-8.418;2023-05-11T03:38:24;100712.09;;;13.34;68.80
50430;BME280;36359;41.556;-8.418;2023-05-11T03:40:54;100710.31;;;14.46;73.66
50430;BME280;36359;41.556;-8.418;2023-05-11T03:43:21;100717.41;;;14.22;64.67
50430;BME280;36359;41.556;-8.418;2023-05-11T03:45:52;100721.50;;;14.18;64.79
50430;BME280;36359;41.556;-8.418;2023-05-11T03:48:19;100717.41;;;14.22;66.80
50430;BME280;36359;41.556;-8.418;2023-05-11T03:50:45;100720.31;;;14.21;65.17
50430;BME280;36359;41.556;-8.418;2023-05-11T03:53:12;100718.78;;;14.26;63.83
50430;BME280;36359;41.556;-8.418;2023-05-11T03:55:38;100714.19;;;14.27;63.98
50430;BME280;36359;41.556;-8.418;2023-05-11T03:58:10;100724.31;;;14.08;62.41
50430;BME280;36359;41.556;-8.418;2023-05-11T04:00:39;100722.00;;;14.22;62.21
50430;BME280;36359;41.556;-8.418;2023-05-11T04:03:07;100718.63;;;13.94;63.06
50430;BME280;36359;41.556;-8.418;2023-05-11T04:05:34;100721.66;;;13.82;65.55
50430;BME280;36359;41.556;-8.418;2023-05-11T04:08:03;100725.81;;;13.69;63.63
50430;BME280;36359;41.556;-8.418;2023-05-11T04:10:30;100731.81;;;13.72;63.75
50430;BME280;36359;41.556;-8.418;2023-05-11T04:12:56;100723.72;;;13.36;64.50
50430;BME280;36359;41.556;-8.418;2023-05-11T04:15:21;100721.66;;;13.56;64.39
50430;BME280;36359;41.556;-8.418;2023-05-11T04:17:47;100711.28;;;13.60;63.72
50430;BME280;36359;41.556;-8.418;2023-05-11T04:20:13;100710.19;;;13.79;66.24
50430;BME280;36359;41.556;-8.418;2023-05-11T04:22:39;100728.25;;;14.06;63.73
50430;BME280;36359;41.556;-8.418;2023-05-11T04:25:05;100733.41;;;14.17;64.47
50430;BME280;36359;41.556;-8.418;2023-05-11T04:27:34;100729.22;;;13.97;63.88
50430;BME280;36359;41.556;-8.418;2023-05-11T04:30:02;100733.72;;;13.54;66.15
50430;BME280;36359;41.556;-8.418;2023-05-11T04:32:28;100729.00;;;13.38;67.66
50430;BME280;36359;41.556;-8.418;2023-05-11T04:34:56;100734.00;;;13.07;68.55
50430;BME280;36359;41.556;-8.418;2023-05-11T04:37:23;100737.34;;;13.01;69.04
50430;BME280;36359;41.556;-8.418;2023-05-11T04:39:50;100729.41;;;12.89;71.02
50430;BME280;36359;41.556;-8.418;2023-05-11T04:42:16;100735.78;;;12.80;71.21
50430;BME280;36359;41.556;-8.418;2023-05-11T04:44:45;100737.88;;;12.86;70.14
50430;BME280;36359;41.556;-8.418;2023-05-11T04:47:10;100737.47;;;12.81;70.59
50430;BME280;36359;41.556;-8.418;2023-05-11T04:49:36;100736.53;;;12.90;70.71
50430;BME280;36359;41.556;-8.418;2023-05-11T04:52:02;100745.88;;;13.06;72.10
50430;BME280;36359;41.556;-8.418;2023-05-11T04:54:29;100737.72;;;13.68;70.28
50430;BME280;36359;41.556;-8.418;2023-05-11T04:56:55;100748.63;;;13.68;67.60
50430;BME280;36359;41.556;-8.418;2023-05-11T04:59:21;100737.78;;;13.50;68.49
50430;BME280;36359;41.556;-8.418;2023-05-11T05:01:47;100749.41;;;13.34;69.23
50430;BME280;36359;41.556;-8.418;2023-05-11T05:04:13;100737.38;;;13.89;70.62
50430;BME280;36359;41.556;-8.418;2023-05-11T05:06:38;100736.38;;;14.24;67.95
50430;BME280;36359;41.556;-8.418;2023-05-11T05:09:04;100743.81;;;13.88;66.59
50430;BME280;36359;41.556;-8.418;2023-05-11T05:11:30;100740.19;;;14.05;67.98
50430;BME280;36359;41.556;-8.418;2023-05-11T05:13:56;100743.41;;;14.77;66.87
50430;BME280;36359;41.556;-8.418;2023-05-11T05:16:22;100738.13;;;14.41;65.06
50430;BME280;36359;41.556;-8.418;2023-05-11T05:18:47;100743.84;;;14.56;64.58
50430;BME280;36359;41.556;-8.418;2023-05-11T05:21:14;100744.97;;;14.11;64.88
50430;BME280;36359;41.556;-8.418;2023-05-11T05:23:40;100745.50;;;14.15;65.70
50430;BME280;36359;41.556;-8.418;2023-05-11T05:26:06;100737.63;;;13.77;66.03
50430;BME280;36359;41.556;-8.418;2023-05-11T05:28:34;100746.03;;;13.84;72.76
50430;BME280;36359;41.556;-8.418;2023-05-11T05:31:01;100753.09;;;13.69;67.34
50430;BME280;36359;41.556;-8.418;2023-05-11T05:33:27;100747.59;;;14.21;69.86
50430;BME280;36359;41.556;-8.418;2023-05-11T05:35:52;100749.53;;;14.02;67.37
50430;BME280;36359;41.556;-8.418;2023-05-11T05:38:18;100749.22;;;14.05;67.64
50430;BME280;36359;41.556;-8.418;2023-05-11T05:40:45;100754.25;;;14.18;68.63
50430;BME280;36359;41.556;-8.418;2023-05-11T05:43:11;100753.28;;;13.75;67.32
50430;BME280;36359;41.556;-8.418;2023-05-11T05:45:37;100751.47;;;13.84;67.76
50430;BME280;36359;41.556;-8.418;2023-05-11T05:48:04;100757.06;;;13.74;67.26
50430;BME280;36359;41.556;-8.418;2023-05-11T05:50:32;100759.94;;;13.73;67.60
50430;BME280;36359;41.556;-8.418;2023-05-11T05:52:57;100755.81;;;13.95;70.85
50430;BME280;36359;41.556;-8.418;2023-05-11T05:55:25;100762.44;;;14.18;72.81
50430;BME280;36359;41.556;-8.418;2023-05-11T05:57:53;100760.03;;;14.15;67.43
50430;BME280;36359;41.556;-8.418;2023-05-11T06:00:37;100765.25;;;14.08;68.28
50430;BME280;36359;41.556;-8.418;2023-05-11T06:03:07;100762.78;;;13.89;67.51
50430;BME280;36359;41.556;-8.418;2023-05-11T06:05:32;100754.25;;;13.92;68.72
50430;BME280;36359;41.556;-8.418;2023-05-11T06:07:59;100755.06;;;13.84;68.72
50430;BME280;36359;41.556;-8.418;2023-05-11T06:10:24;100755.28;;;13.65;68.40
50430;BME280;36359;41.556;-8.418;2023-05-11T06:12:50;100757.81;;;13.40;69.19
50430;BME280;36359;41.556;-8.418;2023-05-11T06:15:16;100750.19;;;13.96;70.52
50430;BME280;36359;41.556;-8.418;2023-05-11T06:17:47;100759.81;;;13.56;69.49
50430;BME280;36359;41.556;-8.418;2023-05-11T06:20:13;100763.31;;;13.49;70.02
50430;BME280;36359;41.556;-8.418;2023-05-11T06:22:39;100752.63;;;13.55;72.19
50430;BME280;36359;41.556;-8.418;2023-05-11T06:25:05;100763.69;;;13.72;69.54
50430;BME280;36359;41.556;-8.418;2023-05-11T06:27:31;100768.59;;;13.68;69.10
50430;BME280;36359;41.556;-8.418;2023-05-11T06:29:57;100771.09;;;13.88;72.51
50430;BME280;36359;41.556;-8.418;2023-05-11T06:32:26;100783.44;;;14.26;68.18
50430;BME280;36359;41.556;-8.418;2023-05-11T06:34:52;100782.91;;;14.22;67.77
50430;BME280;36359;41.556;-8.418;2023-05-11T06:37:18;100785.84;;;14.03;68.45
50430;BME280;36359;41.556;-8.418;2023-05-11T06:39:48;100776.72;;;14.89;70.32
50430;BME280;36359;41.556;-8.418;2023-05-11T06:42:13;100771.91;;;14.91;68.78
50430;BME280;36359;41.556;-8.418;2023-05-11T06:44:39;100783.44;;;14.26;66.89
50430;BME280;36359;41.556;-8.418;2023-05-11T06:47:06;100783.03;;;13.86;69.23
50430;BME280;36359;41.556;-8.418;2023-05-11T06:49:32;100792.00;;;13.79;68.02
50430;BME280;36359;41.556;-8.418;2023-05-11T06:51:58;100789.13;;;14.06;69.68
50430;BME280;36359;41.556;-8.418;2023-05-11T06:54:25;100787.16;;;14.51;66.86
50430;BME280;36359;41.556;-8.418;2023-05-11T06:56:50;100778.63;;;13.68;67.85
50430;BME280;36359;41.556;-8.418;2023-05-11T06:59:16;100782.47;;;13.57;69.00
50430;BME280;36359;41.556;-8.418;2023-05-11T07:01:42;100775.28;;;13.56;68.88
50430;BME280;36359;41.556;-8.418;2023-05-11T07:04:08;100782.47;;;13.57;69.94
50430;BME280;36359;41.556;-8.418;2023-05-11T07:06:34;100787.25;;;13.81;69.61
50430;BME280;36359;41.556;-8.418;2023-05-11T07:09:00;100787.66;;;13.86;69.60
50430;BME280;36359;41.556;-8.418;2023-05-11T07:11:29;100783.72;;;14.49;72.23
50430;BME280;36359;41.556;-8.418;2023-05-11T07:13:55;100788.31;;;14.91;69.85
50430;BME280;36359;41.556;-8.418;2023-05-11T07:16:22;100794.22;;;15.37;66.87
50430;BME280;36359;41.556;-8.418;2023-05-11T07:18:48;100791.66;;;15.52;63.28
50430;BME280;36359;41.556;-8.418;2023-05-11T07:21:14;100793.00;;;15.64;64.66
50430;BME280;36359;41.556;-8.418;2023-05-11T07:23:43;100792.34;;;15.45;63.91
50430;BME280;36359;41.556;-8.418;2023-05-11T07:26:10;100790.13;;;15.57;62.63
50430;BME280;36359;41.556;-8.418;2023-05-11T07:28:36;100791.78;;;15.09;63.77
50430;BME280;36359;41.556;-8.418;2023-05-11T07:31:02;100794.88;;;15.22;61.82
50430;BME280;36359;41.556;-8.418;2023-05-11T07:33:28;100792.31;;;15.29;68.56
50430;BME280;36359;41.556;-8.418;2023-05-11T07:35:54;100792.13;;;16.21;67.66
50430;BME280;36359;41.556;-8.418;2023-05-11T07:38:20;100788.91;;;16.09;60.90
50430;BME280;36359;41.556;-8.418;2023-05-11T07:40:46;100799.31;;;15.64;61.29
50430;BME280;36359;41.556;-8.418;2023-05-11T07:43:12;100787.38;;;15.82;62.50
50430;BME280;36359;41.556;-8.418;2023-05-11T07:45:38;100786.53;;;15.81;61.86
50430;BME280;36359;41.556;-8.418;2023-05-11T07:48:04;100789.47;;;15.72;61.54
50430;BME280;36359;41.556;-8.418;2023-05-11T07:50:37;100793.53;;;15.67;63.74
50430;BME280;36359;41.556;-8.418;2023-05-11T07:53:03;100788.91;;;15.60;61.54
50430;BME280;36359;41.556;-8.418;2023-05-11T07:55:28;100787.06;;;15.69;60.49
50430;BME280;36359;41.556;-8.418;2023-05-11T07:57:54;100784.69;;;15.74;58.77
50430;BME280;36359;41.556;-8.418;2023-05-11T08:00:21;100785.31;;;16.00;58.79
50430;BME280;36359;41.556;-8.418;2023-05-11T08:02:47;100786.81;;;16.11;59.81
50430;BME280;36359;41.556;-8.418;2023-05-11T08:05:12;100790.25;;;16.05;58.12
50430;BME280;36359;41.556;-8.418;2023-05-11T08:07:38;100779.97;;;16.63;63.48
50430;BME280;36359;41.556;-8.418;2023-05-11T08:10:04;100779.63;;;16.66;57.05
50430;BME280;36359;41.556;-8.418;2023-05-11T08:12:30;100779.06;;;16.31;56.30
50430;BME280;36359;41.556;-8.418;2023-05-11T08:14:56;100785.00;;;16.43;55.98
50430;BME280;36359;41.556;-8.418;2023-05-11T08:17:21;100774.84;;;16.60;56.32
50430;BME280;36359;41.556;-8.418;2023-05-11T08:19:48;100761.81;;;16.62;60.72
50430;BME280;36359;41.556;-8.418;2023-05-11T08:22:14;100768.78;;;16.72;55.69
50430;BME280;36359;41.556;-8.418;2023-05-11T08:24:40;100767.03;;;16.48;56.10
50430;BME280;36359;41.556;-8.418;2023-05-11T08:27:06;100763.69;;;16.22;54.66
50430;BME280;36359;41.556;-8.418;2023-05-11T08:29:32;100770.38;;;16.27;55.32
50430;BME280;36359;41.556;-8.418;2023-05-11T08:31:57;100769.69;;;16.17;54.97
50430;BME280;36359;41.556;-8.418;2023-05-11T08:34:23;100770.16;;;16.29;55.15
50430;BME280;36359;41.556;-8.418;2023-05-11T08:36:49;100770.38;;;16.27;54.31
50430;BME280;36359;41.556;-8.418;2023-05-11T08:39:15;100761.34;;;16.10;53.46
50430;BME280;36359;41.556;-8.418;2023-05-11T08:41:42;100761.41;;;16.42;55.33
50430;BME280;36359;41.556;-8.418;2023-05-11T08:44:08;100765.31;;;16.47;54.06
50430;BME280;36359;41.556;-8.418;2023-05-11T08:46:35;100764.38;;;16.24;54.62
50430;BME280;36359;41.556;-8.418;2023-05-11T08:49:03;100761.66;;;16.24;55.42
50430;BME280;36359;41.556;-8.418;2023-05-11T08:51:32;100767.34;;;16.53;54.98
50430;BME280;36359;41.556;-8.418;2023-05-11T08:53:58;100763.50;;;16.31;55.14
50430;BME280;36359;41.556;-8.418;2023-05-11T08:56:25;100757.91;;;16.17;53.00
50430;BME280;36359;41.556;-8.418;2023-05-11T08:58:55;100771.31;;;16.43;54.23
50430;BME280;36359;41.556;-8.418;2023-05-11T09:01:22;100763.34;;;16.25;54.12
50430;BME280;36359;41.556;-8.418;2023-05-11T09:03:50;100767.28;;;16.30;53.75
50430;BME280;36359;41.556;-8.418;2023-05-11T09:06:17;100764.19;;;16.25;53.33
50430;BME280;36359;41.556;-8.418;2023-05-11T09:08:43;100766.19;;;16.48;53.64
50430;BME280;36359;41.556;-8.418;2023-05-11T09:11:10;100770.94;;;16.54;53.42
50430;BME280;36359;41.556;-8.418;2023-05-11T09:13:37;100767.22;;;16.86;54.61
50430;BME280;36359;41.556;-8.418;2023-05-11T09:16:03;100766.56;;;17.30;54.16
50430;BME280;36359;41.556;-8.418;2023-05-11T09:18:30;100756.44;;;17.54;52.25
50430;BME280;36359;41.556;-8.418;2023-05-11T09:20:55;100754.38;;;17.33;53.20
50430;BME280;36359;41.556;-8.418;2023-05-11T09:23:25;100765.94;;;17.20;53.27
50430;BME280;36359;41.556;-8.418;2023-05-11T09:25:52;100757.00;;;17.26;52.53
50430;BME280;36359;41.556;-8.418;2023-05-11T09:28:24;100765.16;;;17.11;51.77
50430;BME280;36359;41.556;-8.418;2023-05-11T09:30:51;100757.31;;;17.31;52.72
50430;BME280;36359;41.556;-8.418;2023-05-11T09:33:22;100761.31;;;17.43;52.89
50430;BME280;36359;41.556;-8.418;2023-05-11T09:35:48;100767.59;;;17.52;52.13
50430;BME280;36359;41.556;-8.418;2023-05-11T09:38:15;100756.56;;;17.37;50.73
50430;BME280;36359;41.556;-8.418;2023-05-11T09:40:50;100752.66;;;17.55;51.36
50430;BME280;36359;41.556;-8.418;2023-05-11T09:43:18;100757.88;;;17.64;51.85
50430;BME280;36359;41.556;-8.418;2023-05-11T09:45:47;100762.16;;;17.44;51.70
50430;BME280;36359;41.556;-8.418;2023-05-11T09:50:50;100758.59;;;17.58;49.48
50430;BME280;36359;41.556;-8.418;2023-05-11T09:53:16;100752.84;;;17.91;51.45
50430;BME280;36359;41.556;-8.418;2023-05-11T09:55:53;100752.97;;;17.75;49.65
50430;BME280;36359;41.556;-8.418;2023-05-11T09:58:20;100758.44;;;17.98;48.13
50430;BME280;36359;41.556;-8.418;2023-05-11T10:00:50;100757.38;;;17.84;50.84
50430;BME280;36359;41.556;-8.418;2023-05-11T10:03:17;100759.09;;;18.00;46.46
50430;BME280;36359;41.556;-8.418;2023-05-11T10:05:56;100761.75;;;17.93;46.37
50430;BME280;36359;41.556;-8.418;2023-05-11T10:08:30;100751.03;;;17.83;46.44
50430;BME280;36359;41.556;-8.418;2023-05-11T10:11:00;100760.59;;;17.87;45.14
50430;BME280;36359;41.556;-8.418;2023-05-11T10:13:27;100747.72;;;18.03;46.27
50430;BME280;36359;41.556;-8.418;2023-05-11T10:15:56;100758.63;;;18.41;46.05
50430;BME280;36359;41.556;-8.418;2023-05-11T10:18:23;100768.09;;;18.53;44.58
50430;BME280;36359;41.556;-8.418;2023-05-11T10:20:50;100759.69;;;18.10;45.02
50430;BME280;36359;41.556;-8.418;2023-05-11T10:23:19;100762.97;;;17.90;44.72
50430;BME280;36359;41.556;-8.418;2023-05-11T10:25:47;100756.09;;;18.24;46.58
50430;BME280;36359;41.556;-8.418;2023-05-11T10:28:15;100764.50;;;18.08;45.51
50430;BME280;36359;41.556;-8.418;2023-05-11T10:30:41;100762.88;;;17.99;45.83
50430;BME280;36359;41.556;-8.418;2023-05-11T10:33:08;100762.31;;;18.48;44.38
50430;BME280;36359;41.556;-8.418;2023-05-11T10:35:37;100755.78;;;18.19;45.80
50430;BME280;36359;41.556;-8.418;2023-05-11T10:38:02;100763.84;;;18.50;45.26
50430;BME280;36359;41.556;-8.418;2023-05-11T10:40:29;100760.78;;;18.75;44.45
50430;BME280;36359;41.556;-8.418;2023-05-11T10:43:29;100766.47;;;18.58;43.38
50430;BME280;36359;41.556;-8.418;2023-05-11T10:48:50;100762.78;;;18.66;44.52
50430;BME280;36359;41.556;-8.418;2023-05-11T10:51:32;100757.06;;;18.68;44.04
50430;BME280;36359;41.556;-8.418;2023-05-11T10:57:14;100751.84;;;18.88;44.97
50430;BME280;36359;41.556;-8.418;2023-05-11T11:00:07;100737.97;;;19.17;48.28
50430;BME280;36359;41.556;-8.418;2023-05-11T11:02:37;100754.41;;;18.89;47.48
50430;BME280;36359;41.556;-8.418;2023-05-11T11:05:03;100749.59;;;18.76;48.60
50430;BME280;36359;41.556;-8.418;2023-05-11T11:10:31;100744.72;;;19.15;44.07
50430;BME280;36359;41.556;-8.418;2023-05-11T11:13:13;100742.97;;;19.07;45.30
50430;BME280;36359;41.556;-8.418;2023-05-11T11:20:51;100749.91;;;19.46;46.05
50430;BME280;36359;41.556;-8.418;2023-05-11T11:23:39;100750.72;;;19.18;46.67
50430;BME280;36359;41.556;-8.418;2023-05-11T11:26:10;100752.28;;;19.27;47.25
50430;BME280;36359;41.556;-8.418;2023-05-11T11:31:30;100740.41;;;19.48;46.67
50430;BME280;36359;41.556;-8.418;2023-05-11T11:33:57;100736.41;;;19.51;47.09
50430;BME280;36359;41.556;-8.418;2023-05-11T11:42:02;100728.06;;;19.94;46.78
50430;BME280;36359;41.556;-8.418;2023-05-11T11:44:29;100718.22;;;19.78;46.50
50430;BME280;36359;41.556;-8.418;2023-05-11T11:52:26;100700.47;;;19.81;48.74
50430;BME280;36359;41.556;-8.418;2023-05-11T11:55:01;100712.88;;;19.98;44.33
50430;BME280;36359;41.556;-8.418;2023-05-11T12:00:02;100707.56;;;19.68;41.65
50430;BME280;36359;41.556;-8.418;2023-05-11T12:02:40;100699.75;;;20.00;41.66
50430;BME280;36359;41.556;-8.418;2023-05-11T12:07:47;100692.25;;;20.29;40.81
50430;BME280;36359;41.556;-8.418;2023-05-11T12:10:14;100694.44;;;20.40;40.84
50430;BME280;36359;41.556;-8.418;2023-05-11T12:12:49;100686.97;;;20.34;40.06
50430;BME280;36359;41.556;-8.418;2023-05-11T12:15:27;100689.41;;;20.50;40.68
50430;BME280;36359;41.556;-8.418;2023-05-11T12:17:55;100676.41;;;20.37;39.66
50430;BME280;36359;41.556;-8.418;2023-05-11T12:20:22;100661.56;;;20.38;40.60
50430;BME280;36359;41.556;-8.418;2023-05-11T12:22:49;100669.88;;;20.45;39.24
50430;BME280;36359;41.556;-8.418;2023-05-11T12:25:15;100657.88;;;20.18;39.63
50430;BME280;36359;41.556;-8.418;2023-05-11T12:27:46;100667.00;;;20.73;40.68
50430;BME280;36359;41.556;-8.418;2023-05-11T12:30:21;100668.56;;;21.09;39.99
50430;BME280;36359;41.556;-8.418;2023-05-11T12:32:48;100665.13;;;20.87;40.28
50430;BME280;36359;41.556;-8.418;2023-05-11T12:35:14;100667.50;;;21.03;40.43
50430;BME280;36359;41.556;-8.418;2023-05-11T12:37:47;100644.75;;;20.75;40.33
50430;BME280;36359;41.556;-8.418;2023-05-11T12:40:13;100653.06;;;20.95;39.65
50430;BME280;36359;41.556;-8.418;2023-05-11T12:42:51;100660.28;;;21.09;41.04
50430;BME280;36359;41.556;-8.418;2023-05-11T12:45:18;100659.84;;;20.92;41.88
50430;BME280;36359;41.556;-8.418;2023-05-11T12:47:46;100639.41;;;20.73;43.99
50430;BME280;36359;41.556;-8.418;2023-05-11T12:50:13;100647.69;;;20.67;41.67
50430;BME280;36359;41.556;-8.418;2023-05-11T12:52:39;100639.25;;;20.88;41.82
50430;BME280;36359;41.556;-8.418;2023-05-11T12:55:05;100638.16;;;20.69;41.93
50430;BME280;36359;41.556;-8.418;2023-05-11T12:57:31;100633.09;;;20.86;40.24
50430;BME280;36359;41.556;-8.418;2023-05-11T13:02:42;100640.31;;;21.14;39.81
50430;BME280;36359;41.556;-8.418;2023-05-11T13:05:10;100628.66;;;20.98;39.89
50430;BME280;36359;41.556;-8.418;2023-05-11T13:07:37;100634.41;;;21.03;40.37
50430;BME280;36359;41.556;-8.418;2023-05-11T13:10:11;100619.31;;;21.13;40.38
50430;BME280;36359;41.556;-8.418;2023-05-11T13:12:48;100631.84;;;21.02;40.33
50430;BME280;36359;41.556;-8.418;2023-05-11T13:15:15;100614.84;;;21.12;41.03
50430;BME280;36359;41.556;-8.418;2023-05-11T13:17:41;100600.63;;;21.08;40.39
50430;BME280;36359;41.556;-8.418;2023-05-11T13:22:48;100594.28;;;21.07;39.36
50430;BME280;36359;41.556;-8.418;2023-05-11T13:25:18;100602.97;;;21.18;40.45
50430;BME280;36359;41.556;-8.418;2023-05-11T13:27:44;100607.66;;;21.24;40.48
50430;BME280;36359;41.556;-8.418;2023-05-11T13:30:11;100599.16;;;21.25;40.90
50430;BME280;36359;41.556;-8.418;2023-05-11T13:32:37;100596.19;;;21.27;40.42
50430;BME280;36359;41.556;-8.418;2023-05-11T13:35:03;100612.31;;;21.30;39.92
50430;BME280;36359;41.556;-8.418;2023-05-11T13:37:30;100610.41;;;21.24;40.17
50430;BME280;36359;41.556;-8.418;2023-05-11T13:39:56;100590.25;;;21.43;40.20
50430;BME280;36359;41.556;-8.418;2023-05-11T13:42:22;100598.72;;;21.48;41.00
50430;BME280;36359;41.556;-8.418;2023-05-11T13:44:51;100608.66;;;21.76;38.80
50430;BME280;36359;41.556;-8.418;2023-05-11T13:47:17;100585.59;;;21.37;39.45